createdAt,value
2017-12-01T00:00:23.721Z,96923.17
2017-12-01T00:01:26.866Z,96918.38
2017-12-01T00:02:29.829Z,96922.98
2017-12-01T00:03:32.967Z,96923.75
2017-12-01T00:04:36.211Z,96926.40
2017-12-01T00:05:39.328Z,96932.73
2017-12-01T00:06:42.241Z,96926.05
2017-12-01T00:07:45.106Z,96929.55
2017-12-01T00:08:48.060Z,96932.92
2017-12-01T00:09:50.942Z,96932.36
2017-12-01T00:10:53.833Z,96931.25
2017-12-01T00:11:57.078Z,96934.90
2017-12-01T00:12:59.886Z,96932.78
2017-12-01T00:14:02.653Z,96935.66
2017-12-01T00:15:05.599Z,96932.36
2017-12-01T00:16:08.763Z,96935.24
2017-12-01T00:17:11.599Z,96937.36
2017-12-01T00:18:14.931Z,96936.78
2017-12-01T00:19:17.922Z,96935.81
2017-12-01T00:20:20.830Z,96937.73
2017-12-01T00:21:23.936Z,96939.13
2017-12-01T00:22:26.917Z,96942.00
2017-12-01T00:23:29.919Z,96941.81
2017-12-01T00:24:33.629Z,96939.31
2017-12-01T00:25:36.557Z,96940.28
2017-12-01T00:26:39.667Z,96945.47
2017-12-01T00:27:42.603Z,96943.36
2017-12-01T00:28:45.597Z,96947.81
2017-12-01T00:29:48.540Z,96946.23
2017-12-01T00:30:52.279Z,96948.16
2017-12-01T00:31:55.524Z,96947.16
2017-12-01T00:32:58.442Z,96950.27
2017-12-01T00:34:01.391Z,96943.88
2017-12-01T00:35:04.327Z,96942.97
2017-12-01T00:36:07.289Z,96948.12
2017-12-01T00:37:10.542Z,96938.16
2017-12-01T00:38:13.508Z,96947.97
2017-12-01T00:39:16.400Z,96943.32
2017-12-01T00:40:19.337Z,96951.62
2017-12-01T00:41:22.300Z,96946.77
2017-12-01T00:42:25.325Z,96949.09
2017-12-01T00:43:28.599Z,96944.84
2017-12-01T00:44:31.622Z,96957.34
2017-12-01T00:45:34.859Z,96946.58
2017-12-01T00:46:37.827Z,96955.04
2017-12-01T00:47:40.790Z,96954.84
2017-12-01T00:48:43.745Z,96960.23
2017-12-01T00:49:46.989Z,96962.73
2017-12-01T00:50:50.085Z,96959.11
2017-12-01T00:51:53.302Z,96962.00
2017-12-01T00:52:56.198Z,96958.12
2017-12-01T00:53:59.275Z,96958.34
2017-12-01T00:55:02.115Z,96962.77
2017-12-01T00:56:05.233Z,96964.14
2017-12-01T00:57:08.158Z,96962.80
2017-12-01T00:58:11.062Z,96959.72
2017-12-01T00:59:14.132Z,96968.34
2017-12-01T01:00:17.113Z,96963.73
2017-12-01T01:01:20.104Z,96962.38
2017-12-01T01:02:23.360Z,96962.38
2017-12-01T01:03:26.417Z,96964.08
2017-12-01T01:04:29.570Z,96967.00
2017-12-01T01:05:32.538Z,96974.87
2017-12-01T01:06:35.959Z,96971.61
2017-12-01T01:07:39.067Z,96976.61
2017-12-01T01:08:42.587Z,96973.34
2017-12-01T01:09:45.647Z,96978.26
2017-12-01T01:10:48.527Z,96974.06
2017-12-01T01:11:51.702Z,96976.95
2017-12-01T01:12:54.598Z,96975.58
2017-12-01T01:13:57.540Z,96974.27
2017-12-01T01:15:00.485Z,96984.61
2017-12-01T01:16:03.431Z,96982.72
2017-12-01T01:17:06.361Z,96982.72
2017-12-01T01:18:09.566Z,96984.52
2017-12-01T01:19:12.508Z,96982.95
2017-12-01T01:20:15.887Z,96980.64
2017-12-01T01:21:18.813Z,96983.64
2017-12-01T01:22:21.822Z,96983.84
2017-12-01T01:23:24.767Z,96983.84
2017-12-01T01:24:27.695Z,96992.88
2017-12-01T01:25:30.663Z,96988.84
2017-12-01T01:26:33.873Z,96994.88
2017-12-01T01:27:36.794Z,97004.48
2017-12-01T01:28:39.714Z,96998.87
2017-12-01T01:29:42.641Z,96997.87
2017-12-01T01:30:45.487Z,96996.34
2017-12-01T01:31:48.342Z,96999.09
2017-12-01T01:32:51.708Z,96998.74
2017-12-01T01:33:54.759Z,97000.44
2017-12-01T01:34:57.812Z,97000.44
2017-12-01T01:36:00.639Z,97005.08
2017-12-01T01:37:03.546Z,97002.75
2017-12-01T01:38:06.396Z,96996.98
2017-12-01T01:39:09.649Z,97001.76
2017-12-01T01:40:12.539Z,97008.10
2017-12-01T01:41:15.364Z,97005.22
2017-12-01T01:42:18.178Z,97006.37
2017-12-01T01:43:21.017Z,97009.06
2017-12-01T01:44:23.855Z,97010.02
2017-12-01T01:45:27.011Z,97006.53
2017-12-01T01:46:29.867Z,97008.84
2017-12-01T01:47:32.694Z,97012.91
2017-12-01T01:48:35.544Z,97012.36
2017-12-01T01:49:38.389Z,97014.45
2017-12-01T01:50:41.243Z,97012.69
2017-12-01T01:51:44.420Z,97013.87
2017-12-01T01:52:47.407Z,97013.48
2017-12-01T01:53:50.361Z,97017.14
2017-12-01T01:54:53.285Z,97019.03
2017-12-01T01:55:56.228Z,97014.25
2017-12-01T01:56:59.128Z,97022.49
2017-12-01T01:58:02.717Z,97020.02
2017-12-01T01:59:05.626Z,97019.66
2017-12-01T02:00:08.546Z,97020.63
2017-12-01T02:01:11.556Z,97024.06
2017-12-01T02:02:16.390Z,97023.30
2017-12-01T02:03:19.499Z,97022.11
2017-12-01T02:04:23.150Z,97023.61
2017-12-01T02:05:26.082Z,97022.06
2017-12-01T02:06:29.092Z,97025.76
2017-12-01T02:07:32.001Z,97024.95
2017-12-01T02:08:34.930Z,97024.61
2017-12-01T02:09:37.851Z,97032.52
2017-12-01T02:10:41.064Z,97029.25
2017-12-01T02:11:44.009Z,97029.64
2017-12-01T02:12:46.914Z,97027.14
2017-12-01T02:13:49.793Z,97033.09
2017-12-01T02:14:52.653Z,97034.66
2017-12-01T02:15:55.499Z,97034.25
2017-12-01T02:16:58.641Z,97033.48
2017-12-01T02:18:03.080Z,97034.83
2017-12-01T02:19:06.011Z,97038.13
2017-12-01T02:20:08.896Z,97037.73
2017-12-01T02:21:14.577Z,97035.98
2017-12-01T02:22:17.414Z,97040.38
2017-12-01T02:23:20.638Z,97038.26
2017-12-01T02:24:23.545Z,97037.49
2017-12-01T02:25:26.444Z,97045.76
2017-12-01T02:26:29.352Z,97046.00
2017-12-01T02:27:32.302Z,97045.25
2017-12-01T02:28:35.234Z,97045.44
2017-12-01T02:29:38.456Z,97048.89
2017-12-01T02:30:41.385Z,97046.77
2017-12-01T02:31:44.361Z,97051.00
2017-12-01T02:32:47.288Z,97045.25
2017-12-01T02:33:50.308Z,97042.54
2017-12-01T02:34:53.264Z,97047.15
2017-12-01T02:35:56.200Z,97052.73
2017-12-01T02:36:59.101Z,97050.63
2017-12-01T02:38:02.299Z,97049.84
2017-12-01T02:39:05.463Z,97052.48
2017-12-01T02:40:08.533Z,97051.91
2017-12-01T02:41:11.663Z,97054.63
2017-12-01T02:42:14.607Z,97052.70
2017-12-01T02:43:17.508Z,97058.87
2017-12-01T02:44:20.562Z,97056.57
2017-12-01T02:45:23.489Z,97058.52
2017-12-01T02:46:26.441Z,97062.14
2017-12-01T02:47:29.815Z,97066.96
2017-12-01T02:48:32.716Z,97064.83
2017-12-01T02:49:35.682Z,97068.10
2017-12-01T02:50:38.587Z,97070.42
2017-12-01T02:51:41.591Z,97071.75
2017-12-01T02:52:44.542Z,97074.47
2017-12-01T02:53:47.746Z,97073.68
2017-12-01T02:54:50.690Z,97076.38
2017-12-01T02:55:53.612Z,97070.81
2017-12-01T02:56:56.505Z,97074.85
2017-12-01T02:57:59.610Z,97076.75
2017-12-01T02:59:02.498Z,97081.37
2017-12-01T03:00:05.721Z,97080.23
2017-12-01T03:01:08.602Z,97080.78
2017-12-01T03:02:11.544Z,97083.85
2017-12-01T03:03:14.476Z,97090.41
2017-12-01T03:04:17.394Z,97085.21
2017-12-01T03:05:20.329Z,97084.82
2017-12-01T03:06:23.531Z,97084.83
2017-12-01T03:07:26.452Z,97087.53
2017-12-01T03:08:29.502Z,97087.31
2017-12-01T03:09:32.521Z,97088.09
2017-12-01T03:10:35.649Z,97087.32
2017-12-01T03:11:38.636Z,97090.03
2017-12-01T03:12:41.845Z,97089.64
2017-12-01T03:13:44.765Z,97094.23
2017-12-01T03:14:47.703Z,97097.48
2017-12-01T03:15:50.685Z,97092.09
2017-12-01T03:16:53.645Z,97097.09
2017-12-01T03:17:56.598Z,97095.02
2017-12-01T03:18:59.959Z,97094.45
2017-12-01T03:20:03.092Z,97096.36
2017-12-01T03:21:06.277Z,97098.27
2017-12-01T03:22:09.278Z,97101.13
2017-12-01T03:23:12.259Z,97098.64
2017-12-01T03:24:15.264Z,97097.52
2017-12-01T03:25:18.442Z,97102.31
2017-12-01T03:26:21.406Z,97101.73
2017-12-01T03:27:24.342Z,97101.56
2017-12-01T03:28:27.317Z,97103.28
2017-12-01T03:29:30.244Z,97102.91
2017-12-01T03:30:33.186Z,97111.34
2017-12-01T03:31:36.408Z,97107.14
2017-12-01T03:32:39.375Z,97106.55
2017-12-01T03:33:42.317Z,97105.40
2017-12-01T03:34:45.317Z,97116.14
2017-12-01T03:35:48.311Z,97119.03
2017-12-01T03:36:51.231Z,97113.08
2017-12-01T03:37:54.401Z,97115.00
2017-12-01T03:38:57.251Z,97114.43
2017-12-01T03:40:00.209Z,97125.01
2017-12-01T03:41:03.162Z,97122.50
2017-12-01T03:42:06.141Z,97119.61
2017-12-01T03:43:09.131Z,97121.34
2017-12-01T03:44:12.413Z,97125.95
2017-12-01T03:45:15.560Z,97125.58
2017-12-01T03:46:18.861Z,97123.27
2017-12-01T03:47:21.977Z,97125.37
2017-12-01T03:48:25.119Z,97130.97
2017-12-01T03:49:28.103Z,97129.05
2017-12-01T03:50:31.315Z,97128.08
2017-12-01T03:51:34.225Z,97129.23
2017-12-01T03:52:37.173Z,97134.03
2017-12-01T03:53:40.102Z,97131.11
2017-12-01T03:54:43.043Z,97131.88
2017-12-01T03:55:45.980Z,97134.77
2017-12-01T03:56:49.260Z,97133.22
2017-12-01T03:57:52.178Z,97140.34
2017-12-01T03:58:55.102Z,97138.79
2017-12-01T03:59:58.087Z,97139.97
2017-12-01T04:01:01.123Z,97142.66
2017-12-01T04:02:04.062Z,97138.62
2017-12-01T04:03:07.296Z,97143.61
2017-12-01T04:04:10.252Z,97140.73
2017-12-01T04:05:16.701Z,97141.13
2017-12-01T04:06:19.712Z,97140.92
2017-12-01T04:07:22.857Z,97146.66
2017-12-01T04:08:25.886Z,97148.57
2017-12-01T04:09:28.935Z,97147.24
2017-12-01T04:10:31.918Z,97155.34
2017-12-01T04:11:34.845Z,97150.35
2017-12-01T04:12:37.710Z,97147.86
2017-12-01T04:13:40.939Z,97154.02
2017-12-01T04:14:44.206Z,97153.62
2017-12-01T04:15:47.426Z,97156.87
2017-12-01T04:16:50.385Z,97151.08
2017-12-01T04:17:53.325Z,97158.77
2017-12-01T04:18:56.252Z,97159.92
2017-12-01T04:19:59.152Z,97158.95
2017-12-01T04:21:02.100Z,97163.75
2017-12-01T04:22:05.321Z,97157.80
2017-12-01T04:23:08.280Z,97162.05
2017-12-01T04:24:11.226Z,97163.02
2017-12-01T04:25:14.206Z,97162.79
2017-12-01T04:26:17.162Z,97165.30
2017-12-01T04:27:20.174Z,97166.84
2017-12-01T04:28:23.348Z,97162.44
2017-12-01T04:29:26.266Z,97166.48
2017-12-01T04:30:30.197Z,97170.72
2017-12-01T04:31:33.345Z,97170.55
2017-12-01T04:32:36.557Z,97166.11
2017-12-01T04:33:39.524Z,97173.80
2017-12-01T04:34:42.472Z,97172.43
2017-12-01T04:35:45.433Z,97175.10
2017-12-01T04:36:48.349Z,97178.94
2017-12-01T04:37:51.351Z,97176.03
2017-12-01T04:38:54.275Z,97182.61
2017-12-01T04:39:57.480Z,97182.05
2017-12-01T04:41:00.445Z,97177.06
2017-12-01T04:42:03.477Z,97174.73
2017-12-01T04:43:06.404Z,97180.70
2017-12-01T04:44:09.469Z,97183.20
2017-12-01T04:45:12.449Z,97179.59
2017-12-01T04:46:15.722Z,97187.82
2017-12-01T04:47:18.710Z,97183.78
2017-12-01T04:48:21.701Z,97186.10
2017-12-01T04:49:24.875Z,97188.62
2017-12-01T04:50:27.933Z,97184.58
2017-12-01T04:51:31.200Z,97188.44
2017-12-01T04:52:34.212Z,97185.55
2017-12-01T04:53:37.054Z,97187.86
2017-12-01T04:54:39.908Z,97194.01
2017-12-01T04:55:42.729Z,97197.83
2017-12-01T04:56:45.563Z,97193.37
2017-12-01T04:57:48.680Z,97192.43
2017-12-01T04:58:52.553Z,97203.55
2017-12-01T04:59:55.476Z,97200.09
2017-12-01T05:00:58.414Z,97205.88
2017-12-01T05:02:01.378Z,97205.67
2017-12-01T05:03:04.306Z,97202.61
2017-12-01T05:04:07.267Z,97206.44
2017-12-01T05:05:10.178Z,97207.58
2017-12-01T05:06:13.166Z,97209.09
2017-12-01T05:07:16.143Z,97206.05
2017-12-01T05:08:19.077Z,97204.11
2017-12-01T05:09:22.610Z,97208.16
2017-12-01T05:10:25.548Z,97207.94
2017-12-01T05:11:28.481Z,97204.87
2017-12-01T05:12:31.459Z,97217.55
2017-12-01T05:13:34.401Z,97214.50
2017-12-01T05:14:37.429Z,97216.63
2017-12-01T05:15:40.605Z,97220.87
2017-12-01T05:16:43.532Z,97221.27
2017-12-01T05:17:46.449Z,97221.47
2017-12-01T05:18:49.502Z,97222.00
2017-12-01T05:19:52.428Z,97228.34
2017-12-01T05:20:55.463Z,97231.80
2017-12-01T05:21:58.718Z,97226.17
2017-12-01T05:23:01.630Z,97228.51
2017-12-01T05:24:04.656Z,97237.39
2017-12-01T05:25:07.671Z,97236.20
2017-12-01T05:26:10.646Z,97240.03
2017-12-01T05:27:13.604Z,97240.08
2017-12-01T05:28:19.838Z,97239.36
2017-12-01T05:29:22.698Z,97244.53
2017-12-01T05:30:25.535Z,97242.42
2017-12-01T05:31:28.484Z,97249.48
2017-12-01T05:32:31.441Z,97251.21
2017-12-01T05:33:34.420Z,97253.77
2017-12-01T05:34:37.700Z,97256.67
2017-12-01T05:35:40.702Z,97256.06
2017-12-01T05:36:43.701Z,97255.69
2017-12-01T05:37:46.917Z,97259.33
2017-12-01T05:38:49.878Z,97267.81
2017-12-01T05:39:52.884Z,97261.23
2017-12-01T05:40:56.131Z,97262.05
2017-12-01T05:41:59.116Z,97266.41
2017-12-01T05:43:02.122Z,97268.74
2017-12-01T05:44:05.069Z,97271.05
2017-12-01T05:45:08.063Z,97274.45
2017-12-01T05:46:10.991Z,97273.88
2017-12-01T05:47:14.257Z,97276.02
2017-12-01T05:48:17.253Z,97282.78
2017-12-01T05:49:20.305Z,97280.06
2017-12-01T05:50:23.318Z,97280.06
2017-12-01T05:51:26.294Z,97286.83
2017-12-01T05:52:29.339Z,97290.40
2017-12-01T05:53:32.913Z,97290.21
2017-12-01T05:54:35.811Z,97286.02
2017-12-01T05:55:38.721Z,97292.38
2017-12-01T05:56:41.570Z,97289.65
2017-12-01T05:57:44.504Z,97297.34
2017-12-01T05:58:47.448Z,97297.37
2017-12-01T05:59:50.806Z,97293.54
2017-12-01T06:00:53.707Z,97291.04
2017-12-01T06:01:57.579Z,97301.38
2017-12-01T06:03:00.830Z,97296.31
2017-12-01T06:04:03.739Z,97295.55
2017-12-01T06:05:06.711Z,97297.13
2017-12-01T06:06:09.859Z,97297.84
2017-12-01T06:07:12.771Z,97296.34
2017-12-01T06:08:15.642Z,97300.02
2017-12-01T06:09:18.581Z,97305.57
2017-12-01T06:10:21.427Z,97301.97
2017-12-01T06:11:24.397Z,97311.41
2017-12-01T06:12:27.772Z,97305.05
2017-12-01T06:13:30.676Z,97309.09
2017-12-01T06:14:33.678Z,97312.48
2017-12-01T06:15:36.618Z,97311.15
2017-12-01T06:16:39.653Z,97309.44
2017-12-01T06:17:42.599Z,97307.69
2017-12-01T06:18:46.025Z,97314.61
2017-12-01T06:19:49.030Z,97317.34
2017-12-01T06:20:51.957Z,97315.78
2017-12-01T06:21:54.915Z,97324.67
2017-12-01T06:22:57.918Z,97325.22
2017-12-01T06:24:00.884Z,97327.30
2017-12-01T06:25:03.905Z,97330.95
2017-12-01T06:26:06.942Z,97327.09
2017-12-01T06:27:09.958Z,97330.51
2017-12-01T06:28:12.951Z,97326.47
2017-12-01T06:29:15.982Z,97327.48
2017-12-01T06:30:18.993Z,97327.69
2017-12-01T06:31:22.269Z,97329.41
2017-12-01T06:32:25.246Z,97331.70
2017-12-01T06:33:29.306Z,97336.34
2017-12-01T06:34:32.325Z,97335.73
2017-12-01T06:35:35.797Z,97336.14
2017-12-01T06:36:38.789Z,97340.96
2017-12-01T06:37:41.725Z,97343.45
2017-12-01T06:38:44.667Z,97343.97
2017-12-01T06:39:47.662Z,97346.09
2017-12-01T06:40:51.213Z,97351.66
2017-12-01T06:41:54.775Z,97348.05
2017-12-01T06:42:58.591Z,97347.50
2017-12-01T06:44:01.517Z,97351.45
2017-12-01T06:45:04.529Z,97351.44
2017-12-01T06:46:07.455Z,97358.33
2017-12-01T06:47:10.316Z,97361.15
2017-12-01T06:48:13.613Z,97363.42
2017-12-01T06:49:16.480Z,97359.28
2017-12-01T06:50:19.375Z,97361.93
2017-12-01T06:51:22.308Z,97361.88
2017-12-01T06:52:25.269Z,97369.63
2017-12-01T06:53:28.245Z,97359.97
2017-12-01T06:54:31.219Z,97371.66
2017-12-01T06:55:34.234Z,97368.88
2017-12-01T06:56:37.729Z,97373.48
2017-12-01T06:57:40.966Z,97366.70
2017-12-01T06:58:43.943Z,97374.61
2017-12-01T06:59:47.277Z,97377.20
2017-12-01T07:00:50.273Z,97376.94
2017-12-01T07:01:53.284Z,97377.53
2017-12-01T07:02:56.314Z,97379.37
2017-12-01T07:03:59.307Z,97374.77
2017-12-01T07:05:02.244Z,97381.67
2017-12-01T07:06:05.863Z,97384.75
2017-12-01T07:07:08.964Z,97387.90
2017-12-01T07:08:11.969Z,97386.70
2017-12-01T07:09:14.921Z,97391.12
2017-12-01T07:10:17.971Z,97391.58
2017-12-01T07:11:20.924Z,97394.30
2017-12-01T07:12:25.660Z,97398.70
2017-12-01T07:13:28.663Z,97395.89
2017-12-01T07:14:31.715Z,97402.73
2017-12-01T07:15:35.076Z,97406.52
2017-12-01T07:16:38.034Z,97400.20
2017-12-01T07:17:41.612Z,97398.53
2017-12-01T07:18:45.402Z,97410.13
2017-12-01T07:19:48.436Z,97409.85
2017-12-01T07:20:51.853Z,97411.61
2017-12-01T07:21:55.049Z,97411.80
2017-12-01T07:22:57.994Z,97412.17
2017-12-01T07:24:01.338Z,97415.16
2017-12-01T07:25:04.751Z,97416.08
2017-12-01T07:26:07.728Z,97419.60
2017-12-01T07:27:11.944Z,97423.64
2017-12-01T07:28:14.890Z,97420.06
2017-12-01T07:29:17.882Z,97424.86
2017-12-01T07:30:20.876Z,97427.92
2017-12-01T07:31:23.861Z,97430.16
2017-12-01T07:32:27.899Z,97428.12
2017-12-01T07:33:30.861Z,97425.95
2017-12-01T07:34:33.902Z,97435.00
2017-12-01T07:35:36.860Z,97437.61
2017-12-01T07:36:40.219Z,97443.37
2017-12-01T07:37:43.289Z,97439.16
2017-12-01T07:38:46.482Z,97446.95
2017-12-01T07:39:49.643Z,97451.62
2017-12-01T07:40:52.747Z,97451.77
2017-12-01T07:41:55.821Z,97449.41
2017-12-01T07:42:59.211Z,97458.69
2017-12-01T07:44:02.346Z,97457.55
2017-12-01T07:45:05.679Z,97460.42
2017-12-01T07:46:08.709Z,97461.22
2017-12-01T07:47:11.755Z,97456.45
2017-12-01T07:48:14.795Z,97459.28
2017-12-01T07:49:18.328Z,97458.31
2017-12-01T07:50:21.499Z,97464.27
2017-12-01T07:51:24.582Z,97464.21
2017-12-01T07:52:27.675Z,97461.91
2017-12-01T07:53:30.839Z,97469.09
2017-12-01T07:54:34.033Z,97471.13
2017-12-01T07:55:37.588Z,97474.95
2017-12-01T07:56:40.788Z,97472.91
2017-12-01T07:57:43.913Z,97470.92
2017-12-01T07:58:47.030Z,97474.47
2017-12-01T07:59:50.157Z,97479.67
2017-12-01T08:00:53.324Z,97478.47
2017-12-01T08:01:57.255Z,97474.84
2017-12-01T08:03:02.472Z,97478.89
2017-12-01T08:04:05.590Z,97477.95
2017-12-01T08:05:08.744Z,97483.77
2017-12-01T08:06:12.093Z,97486.41
2017-12-01T08:07:19.084Z,97483.70
2017-12-01T08:08:22.599Z,97488.17
2017-12-01T08:09:25.707Z,97485.66
2017-12-01T08:10:28.793Z,97488.32
2017-12-01T08:11:32.256Z,97490.44
2017-12-01T08:12:35.356Z,97496.01
2017-12-01T08:13:38.524Z,97505.26
2017-12-01T08:14:42.023Z,97500.86
2017-12-01T08:15:45.191Z,97505.67
2017-12-01T08:16:48.297Z,97499.54
2017-12-01T08:17:52.509Z,97508.23
2017-12-01T08:18:55.919Z,97504.01
2017-12-01T08:19:59.076Z,97507.30
2017-12-01T08:21:02.938Z,97512.30
2017-12-01T08:22:06.229Z,97511.02
2017-12-01T08:23:09.298Z,97510.70
2017-12-01T08:24:12.411Z,97511.16
2017-12-01T08:25:15.571Z,97513.38
2017-12-01T08:26:18.633Z,97515.86
2017-12-01T08:27:22.155Z,97512.42
2017-12-01T08:28:25.214Z,97513.17
2017-12-01T08:29:28.340Z,97517.21
2017-12-01T08:30:31.447Z,97517.01
2017-12-01T08:31:34.636Z,97526.25
2017-12-01T08:32:37.756Z,97521.45
2017-12-01T08:33:41.151Z,97529.34
2017-12-01T08:34:44.130Z,97525.88
2017-12-01T08:35:47.106Z,97528.09
2017-12-01T08:36:50.033Z,97531.56
2017-12-01T08:37:52.979Z,97527.77
2017-12-01T08:38:55.957Z,97534.13
2017-12-01T08:39:59.168Z,97545.88
2017-12-01T08:41:02.275Z,97534.73
2017-12-01T08:42:05.247Z,97540.71
2017-12-01T08:43:08.208Z,97540.45
2017-12-01T08:44:11.220Z,97545.81
2017-12-01T08:45:14.360Z,97543.88
2017-12-01T08:46:17.793Z,97545.27
2017-12-01T08:47:20.762Z,97549.14
2017-12-01T08:48:23.768Z,97553.26
2017-12-01T08:49:27.033Z,97544.00
2017-12-01T08:50:29.987Z,97547.42
2017-12-01T08:51:33.272Z,97552.02
2017-12-01T08:52:36.696Z,97550.32
2017-12-01T08:53:39.670Z,97551.11
2017-12-01T08:54:42.721Z,97555.81
2017-12-01T08:55:45.725Z,97551.34
2017-12-01T08:56:48.726Z,97545.06
2017-12-01T08:57:51.761Z,97550.47
2017-12-01T08:58:55.168Z,97544.73
2017-12-01T08:59:58.316Z,97544.30
2017-12-01T09:01:01.421Z,97541.05
2017-12-01T09:02:04.629Z,97541.38
2017-12-01T09:03:07.596Z,97550.25
2017-12-01T09:04:10.570Z,97552.81
2017-12-01T09:05:14.032Z,97557.13
2017-12-01T09:06:17.073Z,97557.65
2017-12-01T09:07:20.180Z,97558.18
2017-12-01T09:08:23.154Z,97561.48
2017-12-01T09:09:26.122Z,97561.69
2017-12-01T09:10:29.377Z,97567.30
2017-12-01T09:11:32.720Z,97562.70
2017-12-01T09:12:35.801Z,97567.20
2017-12-01T09:13:38.847Z,97576.09
2017-12-01T09:14:41.837Z,97572.70
2017-12-01T09:15:44.807Z,97569.63
2017-12-01T09:16:47.744Z,97577.27
2017-12-01T09:17:51.168Z,97579.97
2017-12-01T09:18:55.061Z,97583.03
2017-12-01T09:19:58.086Z,97580.27
2017-12-01T09:21:01.094Z,97583.38
2017-12-01T09:22:04.186Z,97591.93
2017-12-01T09:23:07.243Z,97589.94
2017-12-01T09:24:11.302Z,97597.70
2017-12-01T09:25:14.656Z,97596.38
2017-12-01T09:26:17.666Z,97602.95
2017-12-01T09:27:20.718Z,97600.64
2017-12-01T09:28:23.855Z,97604.48
2017-12-01T09:29:26.802Z,97610.50
2017-12-01T09:30:30.182Z,97610.30
2017-12-01T09:31:33.463Z,97612.23
2017-12-01T09:32:36.506Z,97606.42
2017-12-01T09:33:39.473Z,97616.63
2017-12-01T09:34:42.507Z,97611.43
2017-12-01T09:35:45.548Z,97612.22
2017-12-01T09:36:48.853Z,97619.71
2017-12-01T09:37:51.850Z,97620.14
2017-12-01T09:38:54.913Z,97615.56
2017-12-01T09:39:57.818Z,97618.68
2017-12-01T09:41:00.691Z,97622.73
2017-12-01T09:42:03.946Z,97618.00
2017-12-01T09:43:08.310Z,97617.45
2017-12-01T09:44:13.877Z,97624.09
2017-12-01T09:45:16.801Z,97629.23
2017-12-01T09:46:19.700Z,97631.20
2017-12-01T09:47:22.764Z,97626.48
2017-12-01T09:48:25.771Z,97629.58
2017-12-01T09:49:29.024Z,97629.87
2017-12-01T09:50:32.028Z,97637.51
2017-12-01T09:51:34.994Z,97637.89
2017-12-01T09:52:37.988Z,97633.50
2017-12-01T09:53:41.040Z,97640.33
2017-12-01T09:54:44.013Z,97639.89
2017-12-01T09:55:47.300Z,97639.59
2017-12-01T09:56:50.280Z,97641.36
2017-12-01T09:57:53.302Z,97644.16
2017-12-01T09:58:56.320Z,97639.31
2017-12-01T09:59:59.286Z,97641.62
2017-12-01T10:01:02.273Z,97647.22
2017-12-01T10:02:05.246Z,97643.80
2017-12-01T10:03:08.827Z,97649.88
2017-12-01T10:04:11.831Z,97648.23
2017-12-01T10:05:14.812Z,97649.80
2017-12-01T10:06:17.841Z,97650.86
2017-12-01T10:07:20.818Z,97651.09
2017-12-01T10:08:23.804Z,97648.95
2017-12-01T10:09:26.819Z,97649.19
2017-12-01T10:10:29.938Z,97652.05
2017-12-01T10:11:32.945Z,97648.58
2017-12-01T10:12:36.251Z,97655.22
2017-12-01T10:13:39.263Z,97653.80
2017-12-01T10:14:42.288Z,97656.02
2017-12-01T10:15:45.393Z,97654.84
2017-12-01T10:16:48.348Z,97661.77
2017-12-01T10:17:51.660Z,97662.33
2017-12-01T10:18:55.398Z,97661.16
2017-12-01T10:19:59.533Z,97658.30
2017-12-01T10:21:02.553Z,97654.77
2017-12-01T10:22:05.596Z,97658.09
2017-12-01T10:23:08.601Z,97664.58
2017-12-01T10:24:11.547Z,97665.91
2017-12-01T10:25:15.004Z,97663.13
2017-12-01T10:26:18.031Z,97664.77
2017-12-01T10:27:21.101Z,97667.05
2017-12-01T10:28:24.129Z,97663.79
2017-12-01T10:29:27.140Z,97664.09
2017-12-01T10:30:30.549Z,97663.95
2017-12-01T10:31:33.537Z,97669.58
2017-12-01T10:32:36.652Z,97664.90
2017-12-01T10:33:39.732Z,97668.46
2017-12-01T10:34:42.750Z,97661.34
2017-12-01T10:35:45.825Z,97664.81
2017-12-01T10:36:49.193Z,97666.48
2017-12-01T10:37:52.250Z,97665.64
2017-12-01T10:38:55.258Z,97663.20
2017-12-01T10:39:59.239Z,97663.80
2017-12-01T10:41:02.297Z,97662.02
2017-12-01T10:42:05.299Z,97664.14
2017-12-01T10:43:08.579Z,97666.06
2017-12-01T10:44:11.617Z,97666.41
2017-12-01T10:45:23.206Z,97670.72
2017-12-01T10:46:26.250Z,97664.30
2017-12-01T10:47:29.208Z,97663.74
2017-12-01T10:48:32.248Z,97666.06
2017-12-01T10:49:35.580Z,97671.04
2017-12-01T10:50:38.528Z,97676.85
2017-12-01T10:51:41.474Z,97671.66
2017-12-01T10:52:44.446Z,97670.55
2017-12-01T10:53:47.438Z,97676.92
2017-12-01T10:54:50.450Z,97676.84
2017-12-01T10:55:53.808Z,97677.09
2017-12-01T10:56:56.772Z,97675.70
2017-12-01T10:57:59.772Z,97681.16
2017-12-01T10:59:02.737Z,97680.63
2017-12-01T11:00:05.651Z,97681.41
2017-12-01T11:01:08.683Z,97673.64
2017-12-01T11:02:12.137Z,97682.66
2017-12-01T11:03:15.290Z,97684.86
2017-12-01T11:04:18.692Z,97682.38
2017-12-01T11:05:21.703Z,97689.93
2017-12-01T11:06:25.211Z,97687.59
2017-12-01T11:07:28.316Z,97692.92
2017-12-01T11:08:31.554Z,97696.75
2017-12-01T11:09:34.575Z,97698.82
2017-12-01T11:10:37.550Z,97692.02
2017-12-01T11:11:40.467Z,97695.54
2017-12-01T11:12:43.426Z,97696.39
2017-12-01T11:13:46.400Z,97693.09
2017-12-01T11:14:49.687Z,97691.13
2017-12-01T11:15:52.511Z,97693.84
2017-12-01T11:16:55.396Z,97697.69
2017-12-01T11:17:58.474Z,97702.09
2017-12-01T11:19:01.516Z,97703.14
2017-12-01T11:20:04.521Z,97701.38
2017-12-01T11:21:08.020Z,97700.38
2017-12-01T11:22:11.014Z,97702.52
2017-12-01T11:23:13.970Z,97702.00
2017-12-01T11:24:17.037Z,97703.23
2017-12-01T11:25:20.016Z,97702.30
2017-12-01T11:26:22.933Z,97707.30
2017-12-01T11:27:26.224Z,97704.23
2017-12-01T11:28:29.202Z,97711.50
2017-12-01T11:29:32.162Z,97711.30
2017-12-01T11:30:35.104Z,97710.65
2017-12-01T11:31:38.135Z,97709.99
2017-12-01T11:32:41.148Z,97708.14
2017-12-01T11:33:44.572Z,97713.63
2017-12-01T11:34:47.568Z,97715.39
2017-12-01T11:35:50.926Z,97716.84
2017-12-01T11:36:53.903Z,97711.73
2017-12-01T11:37:56.860Z,97719.70
2017-12-01T11:38:59.843Z,97719.12
2017-12-01T11:40:03.949Z,97714.50
2017-12-01T11:41:07.422Z,97717.16
2017-12-01T11:42:11.004Z,97715.63
2017-12-01T11:43:13.984Z,97708.61
2017-12-01T11:44:16.942Z,97708.86
2017-12-01T11:45:20.186Z,97712.91
2017-12-01T11:46:23.544Z,97714.44
2017-12-01T11:47:26.493Z,97719.42
2017-12-01T11:48:29.584Z,97711.54
2017-12-01T11:49:32.531Z,97710.28
2017-12-01T11:50:35.686Z,97718.37
2017-12-01T11:51:38.600Z,97718.77
2017-12-01T11:52:44.088Z,97718.28
2017-12-01T11:53:47.422Z,97715.00
2017-12-01T11:54:50.653Z,97718.10
2017-12-01T11:55:54.036Z,97719.12
2017-12-01T11:56:57.026Z,97720.99
2017-12-01T11:57:59.992Z,97726.86
2017-12-01T11:59:03.889Z,97727.55
2017-12-01T12:00:06.947Z,97731.41
2017-12-01T12:01:09.944Z,97722.58
2017-12-01T12:02:12.773Z,97727.59
2017-12-01T12:03:17.477Z,97742.06
2017-12-01T12:04:20.357Z,97732.42
2017-12-01T12:05:23.166Z,97730.68
2017-12-01T12:06:25.994Z,97734.58
2017-12-01T12:07:28.917Z,97736.00
2017-12-01T12:08:31.875Z,97736.91
2017-12-01T12:09:34.975Z,97739.46
2017-12-01T12:10:38.347Z,97740.02
2017-12-01T12:11:41.300Z,97743.55
2017-12-01T12:12:44.292Z,97741.64
2017-12-01T12:13:47.243Z,97742.23
2017-12-01T12:14:50.221Z,97746.30
2017-12-01T12:15:53.344Z,97744.91
2017-12-01T12:16:56.716Z,97744.34
2017-12-01T12:17:59.604Z,97747.23
2017-12-01T12:19:02.673Z,97749.36
2017-12-01T12:20:05.614Z,97742.08
2017-12-01T12:21:08.498Z,97753.32